Alligator, Mississippi
Current Conditions -  °F | °C
As of 2:35 AM on Saturday 22 Nov 2014 (Local Time) from KCKM Reporting Station
Overcast Overcast  
Wind Chill: 55°   Ceiling: 9000
Heat Index: 55°   Visibility: 10mi
Dew Point: 48°   Wind: 7mph
Humidity: 77%   Direction: 140°SE
Pressure: 30.29"   Gusts: NA
Location:  34.09°N, 90.72°W
Report Text: KCKM 220835Z AUTO 14006KT 10SM FEW065 BKN090 OVC110 13/09 A3029 RMK AO1
Loading
Personal Weather Stations






























Interactive Weather Map New forecast layout! Learn more

10-Day Weather Forecast

Advertisements
Track Severe Weather on mobile